sensor_id;sensor_type;location;lat;lon;timestamp;temperature;humidity
8595;DHT22;4335;48.860;9.198;2022-11-20T00:01:04;5.90;99.90
8595;DHT22;4335;48.860;9.198;2022-11-20T00:03:31;5.90;99.90
8595;DHT22;4335;48.860;9.198;2022-11-20T00:05:59;5.90;99.90
8595;DHT22;4335;48.860;9.198;2022-11-20T00:08:26;5.90;99.90
8595;DHT22;4335;48.860;9.198;2022-11-20T00:10:52;5.90;99.90
8595;DHT22;4335;48.860;9.198;2022-11-20T00:13:22;5.90;99.90
8595;DHT22;4335;48.860;9.198;2022-11-20T00:15:57;5.90;99.90
8595;DHT22;4335;48.860;9.198;2022-11-20T00:18:24;5.90;99.90
8595;DHT22;4335;48.860;9.198;2022-11-20T00:20:50;5.90;99.90
8595;DHT22;4335;48.860;9.198;2022-11-20T00:23:17;5.90;99.90
8595;DHT22;4335;48.860;9.198;2022-11-20T00:25:47;5.90;99.90
8595;DHT22;4335;48.860;9.198;2022-11-20T00:28:14;5.90;99.90
8595;DHT22;4335;48.860;9.198;2022-11-20T00:30:40;5.90;99.90
8595;DHT22;4335;48.860;9.198;2022-11-20T00:33:08;5.90;99.90
8595;DHT22;4335;48.860;9.198;2022-11-20T00:35:34;6.00;99.90
8595;DHT22;4335;48.860;9.198;2022-11-20T00:38:04;5.90;99.90
8595;DHT22;4335;48.860;9.198;2022-11-20T00:40:30;5.90;99.90
8595;DHT22;4335;48.860;9.198;2022-11-20T00:43:00;5.90;99.90
8595;DHT22;4335;48.860;9.198;2022-11-20T00:45:27;5.90;99.90
8595;DHT22;4335;48.860;9.198;2022-11-20T00:47:54;5.90;99.90
8595;DHT22;4335;48.860;9.198;2022-11-20T00:50:21;5.90;99.90
8595;DHT22;4335;48.860;9.198;2022-11-20T00:52:48;5.90;99.90
8595;DHT22;4335;48.860;9.198;2022-11-20T00:55:14;5.90;99.90
8595;DHT22;4335;48.860;9.198;2022-11-20T00:57:41;5.90;99.90
8595;DHT22;4335;48.860;9.198;2022-11-20T01:00:09;5.90;99.90
8595;DHT22;4335;48.860;9.198;2022-11-20T01:02:39;5.90;99.90
8595;DHT22;4335;48.860;9.198;2022-11-20T01:05:06;5.90;99.90
8595;DHT22;4335;48.860;9.198;2022-11-20T01:07:33;5.90;99.90
8595;DHT22;4335;48.860;9.198;2022-11-20T01:10:00;5.90;99.90
8595;DHT22;4335;48.860;9.198;2022-11-20T01:12:26;5.90;99.90
8595;DHT22;4335;48.860;9.198;2022-11-20T01:14:53;5.90;99.90
8595;DHT22;4335;48.860;9.198;2022-11-20T01:17:23;5.90;99.90
8595;DHT22;4335;48.860;9.198;2022-11-20T01:19:50;5.90;99.90
8595;DHT22;4335;48.860;9.198;2022-11-20T01:22:16;5.90;99.90
8595;DHT22;4335;48.860;9.198;2022-11-20T01:24:44;5.80;99.90
8595;DHT22;4335;48.860;9.198;2022-11-20T01:27:10;5.80;99.90
8595;DHT22;4335;48.860;9.198;2022-11-20T01:29:37;5.80;99.90
8595;DHT22;4335;48.860;9.198;2022-11-20T01:32:07;5.80;99.90
8595;DHT22;4335;48.860;9.198;2022-11-20T01:34:36;5.80;99.90
8595;DHT22;4335;48.860;9.198;2022-11-20T01:37:06;5.80;99.90
8595;DHT22;4335;48.860;9.198;2022-11-20T01:39:33;5.70;99.90
8595;DHT22;4335;48.860;9.198;2022-11-20T01:42:00;5.70;99.90
8595;DHT22;4335;48.860;9.198;2022-11-20T01:44:54;5.70;99.90
8595;DHT22;4335;48.860;9.198;2022-11-20T01:47:26;5.70;99.90
8595;DHT22;4335;48.860;9.198;2022-11-20T01:49:56;5.70;99.90
8595;DHT22;4335;48.860;9.198;2022-11-20T01:52:38;5.80;99.90
8595;DHT22;4335;48.860;9.198;2022-11-20T01:55:08;5.80;99.90
8595;DHT22;4335;48.860;9.198;2022-11-20T01:57:36;5.80;99.90
8595;DHT22;4335;48.860;9.198;2022-11-20T02:00:08;5.80;99.90
8595;DHT22;4335;48.860;9.198;2022-11-20T02:02:36;5.80;99.90
8595;DHT22;4335;48.860;9.198;2022-11-20T02:05:21;5.80;99.90
8595;DHT22;4335;48.860;9.198;2022-11-20T02:07:49;5.80;99.90
8595;DHT22;4335;48.860;9.198;2022-11-20T02:10:17;5.70;99.90
8595;DHT22;4335;48.860;9.198;2022-11-20T02:12:48;5.70;99.90
8595;DHT22;4335;48.860;9.198;2022-11-20T02:15:38;5.70;99.90
8595;DHT22;4335;48.860;9.198;2022-11-20T02:18:09;5.70;99.90
8595;DHT22;4335;48.860;9.198;2022-11-20T02:20:37;5.70;99.90
8595;DHT22;4335;48.860;9.198;2022-11-20T02:23:09;5.70;99.90
8595;DHT22;4335;48.860;9.198;2022-11-20T02:25:39;5.70;99.90
8595;DHT22;4335;48.860;9.198;2022-11-20T02:28:10;5.70;99.90
8595;DHT22;4335;48.860;9.198;2022-11-20T02:30:37;5.70;99.90
8595;DHT22;4335;48.860;9.198;2022-11-20T02:33:03;5.80;99.90
8595;DHT22;4335;48.860;9.198;2022-11-20T02:35:42;5.70;99.90
8595;DHT22;4335;48.860;9.198;2022-11-20T02:38:09;5.80;99.90
8595;DHT22;4335;48.860;9.198;2022-11-20T02:40:36;5.80;99.90
8595;DHT22;4335;48.860;9.198;2022-11-20T02:43:03;5.80;99.90
8595;DHT22;4335;48.860;9.198;2022-11-20T02:45:33;5.80;99.90
8595;DHT22;4335;48.860;9.198;2022-11-20T02:48:00;5.80;99.90
8595;DHT22;4335;48.860;9.198;2022-11-20T02:50:27;5.80;99.90
8595;DHT22;4335;48.860;9.198;2022-11-20T02:52:53;5.80;99.90
8595;DHT22;4335;48.860;9.198;2022-11-20T02:55:20;5.80;99.90
8595;DHT22;4335;48.860;9.198;2022-11-20T02:57:48;5.80;99.90
8595;DHT22;4335;48.860;9.198;2022-11-20T03:00:15;5.90;99.90
8595;DHT22;4335;48.860;9.198;2022-11-20T03:02:41;5.90;99.90
8595;DHT22;4335;48.860;9.198;2022-11-20T03:05:11;5.90;99.90
8595;DHT22;4335;48.860;9.198;2022-11-20T03:07:38;5.90;99.90
8595;DHT22;4335;48.860;9.198;2022-11-20T03:10:06;5.90;99.90
8595;DHT22;4335;48.860;9.198;2022-11-20T03:12:38;6.00;99.90
8595;DHT22;4335;48.860;9.198;2022-11-20T03:15:07;6.00;99.90
8595;DHT22;4335;48.860;9.198;2022-11-20T03:17:34;5.90;99.90
8595;DHT22;4335;48.860;9.198;2022-11-20T03:20:04;6.00;99.90
8595;DHT22;4335;48.860;9.198;2022-11-20T03:22:31;6.00;99.90
8595;DHT22;4335;48.860;9.198;2022-11-20T03:25:07;6.00;99.90
8595;DHT22;4335;48.860;9.198;2022-11-20T03:27:36;6.00;99.90
8595;DHT22;4335;48.860;9.198;2022-11-20T03:30:05;6.00;99.90
8595;DHT22;4335;48.860;9.198;2022-11-20T03:32:32;6.00;99.90
8595;DHT22;4335;48.860;9.198;2022-11-20T03:34:59;6.00;99.90
8595;DHT22;4335;48.860;9.198;2022-11-20T03:37:26;6.00;99.90
8595;DHT22;4335;48.860;9.198;2022-11-20T03:39:52;6.00;99.90
8595;DHT22;4335;48.860;9.198;2022-11-20T03:42:25;6.00;99.90
8595;DHT22;4335;48.860;9.198;2022-11-20T03:45:17;6.10;99.90
8595;DHT22;4335;48.860;9.198;2022-11-20T03:47:44;6.10;99.90
8595;DHT22;4335;48.860;9.198;2022-11-20T03:50:12;6.10;99.90
8595;DHT22;4335;48.860;9.198;2022-11-20T03:52:40;6.10;99.90
8595;DHT22;4335;48.860;9.198;2022-11-20T03:55:07;6.10;99.90
8595;DHT22;4335;48.860;9.198;2022-11-20T03:57:34;6.10;99.90
8595;DHT22;4335;48.860;9.198;2022-11-20T04:00:01;6.10;99.90
8595;DHT22;4335;48.860;9.198;2022-11-20T04:02:28;6.10;99.90
8595;DHT22;4335;48.860;9.198;2022-11-20T04:04:58;6.10;99.90
8595;DHT22;4335;48.860;9.198;2022-11-20T04:07:25;6.20;99.90
8595;DHT22;4335;48.860;9.198;2022-11-20T04:09:51;6.20;99.90
8595;DHT22;4335;48.860;9.198;2022-11-20T04:12:18;6.20;99.90
8595;DHT22;4335;48.860;9.198;2022-11-20T04:14:45;6.30;99.90
8595;DHT22;4335;48.860;9.198;2022-11-20T04:17:11;6.20;99.90
8595;DHT22;4335;48.860;9.198;2022-11-20T04:19:45;6.20;99.90
8595;DHT22;4335;48.860;9.198;2022-11-20T04:22:21;6.30;99.90
8595;DHT22;4335;48.860;9.198;2022-11-20T04:24:48;6.30;99.90
8595;DHT22;4335;48.860;9.198;2022-11-20T04:27:15;6.30;99.90
8595;DHT22;4335;48.860;9.198;2022-11-20T04:29:42;6.40;99.90
8595;DHT22;4335;48.860;9.198;2022-11-20T04:32:15;6.40;99.90
8595;DHT22;4335;48.860;9.198;2022-11-20T04:34:45;6.40;99.90
8595;DHT22;4335;48.860;9.198;2022-11-20T04:37:12;6.30;99.90
8595;DHT22;4335;48.860;9.198;2022-11-20T04:39:39;6.30;99.90
8595;DHT22;4335;48.860;9.198;2022-11-20T04:42:09;6.20;99.90
8595;DHT22;4335;48.860;9.198;2022-11-20T04:44:53;6.30;99.90
8595;DHT22;4335;48.860;9.198;2022-11-20T04:47:20;6.30;99.90
8595;DHT22;4335;48.860;9.198;2022-11-20T04:49:48;6.20;99.90
8595;DHT22;4335;48.860;9.198;2022-11-20T04:52:18;6.20;99.90
8595;DHT22;4335;48.860;9.198;2022-11-20T04:54:48;6.20;99.90
8595;DHT22;4335;48.860;9.198;2022-11-20T04:57:18;6.20;99.90
8595;DHT22;4335;48.860;9.198;2022-11-20T04:59:44;6.20;99.90
8595;DHT22;4335;48.860;9.198;2022-11-20T05:02:14;6.20;99.90
8595;DHT22;4335;48.860;9.198;2022-11-20T05:04:43;6.10;99.90
8595;DHT22;4335;48.860;9.198;2022-11-20T05:07:14;6.10;99.90
8595;DHT22;4335;48.860;9.198;2022-11-20T05:09:40;6.10;99.90
8595;DHT22;4335;48.860;9.198;2022-11-20T05:12:13;6.10;99.90
8595;DHT22;4335;48.860;9.198;2022-11-20T05:14:40;6.10;99.90
8595;DHT22;4335;48.860;9.198;2022-11-20T05:17:10;6.10;99.90
8595;DHT22;4335;48.860;9.198;2022-11-20T05:19:43;6.10;99.90
8595;DHT22;4335;48.860;9.198;2022-11-20T05:22:09;6.10;99.90
8595;DHT22;4335;48.860;9.198;2022-11-20T05:24:40;6.20;99.90
8595;DHT22;4335;48.860;9.198;2022-11-20T05:27:09;6.10;99.90
8595;DHT22;4335;48.860;9.198;2022-11-20T05:29:36;6.10;99.90
8595;DHT22;4335;48.860;9.198;2022-11-20T05:32:03;6.10;99.90
8595;DHT22;4335;48.860;9.198;2022-11-20T05:34:31;6.10;99.90
8595;DHT22;4335;48.860;9.198;2022-11-20T05:36:58;6.10;99.90
8595;DHT22;4335;48.860;9.198;2022-11-20T05:39:27;6.20;99.90
8595;DHT22;4335;48.860;9.198;2022-11-20T05:41:54;6.20;99.90
8595;DHT22;4335;48.860;9.198;2022-11-20T05:44:35;6.20;99.90
8595;DHT22;4335;48.860;9.198;2022-11-20T05:47:02;6.20;99.90
8595;DHT22;4335;48.860;9.198;2022-11-20T05:49:32;6.20;99.90
8595;DHT22;4335;48.860;9.198;2022-11-20T05:51:58;6.20;99.90
8595;DHT22;4335;48.860;9.198;2022-11-20T05:54:25;6.20;99.90
8595;DHT22;4335;48.860;9.198;2022-11-20T05:56:52;6.20;99.90
8595;DHT22;4335;48.860;9.198;2022-11-20T05:59:19;6.20;99.90
8595;DHT22;4335;48.860;9.198;2022-11-20T06:01:46;6.20;99.90
8595;DHT22;4335;48.860;9.198;2022-11-20T06:04:12;6.20;99.90
8595;DHT22;4335;48.860;9.198;2022-11-20T06:06:39;6.30;99.90
8595;DHT22;4335;48.860;9.198;2022-11-20T06:09:06;6.30;99.90
8595;DHT22;4335;48.860;9.198;2022-11-20T06:11:36;6.40;99.90
8595;DHT22;4335;48.860;9.198;2022-11-20T06:14:03;6.40;99.90
8595;DHT22;4335;48.860;9.198;2022-11-20T06:16:30;6.50;99.90
8595;DHT22;4335;48.860;9.198;2022-11-20T06:18:57;6.60;99.90
8595;DHT22;4335;48.860;9.198;2022-11-20T06:21:27;6.60;99.90
8595;DHT22;4335;48.860;9.198;2022-11-20T06:23:57;6.70;99.90
8595;DHT22;4335;48.860;9.198;2022-11-20T06:26:25;6.70;99.90
8595;DHT22;4335;48.860;9.198;2022-11-20T06:28:52;6.80;99.90
8595;DHT22;4335;48.860;9.198;2022-11-20T06:31:23;6.80;99.90
8595;DHT22;4335;48.860;9.198;2022-11-20T06:33:52;6.80;99.90
8595;DHT22;4335;48.860;9.198;2022-11-20T06:36:21;6.80;99.90
8595;DHT22;4335;48.860;9.198;2022-11-20T06:38:49;6.80;99.90
8595;DHT22;4335;48.860;9.198;2022-11-20T06:41:18;6.80;99.90
8595;DHT22;4335;48.860;9.198;2022-11-20T06:43:49;6.90;99.90
8595;DHT22;4335;48.860;9.198;2022-11-20T06:46:19;6.90;99.90
8595;DHT22;4335;48.860;9.198;2022-11-20T06:48:50;6.90;99.90
8595;DHT22;4335;48.860;9.198;2022-11-20T06:51:20;6.90;99.90
8595;DHT22;4335;48.860;9.198;2022-11-20T06:53:50;7.00;99.90
8595;DHT22;4335;48.860;9.198;2022-11-20T06:56:17;6.90;99.90
8595;DHT22;4335;48.860;9.198;2022-11-20T06:58:49;6.90;99.90
8595;DHT22;4335;48.860;9.198;2022-11-20T07:01:16;6.90;99.90
8595;DHT22;4335;48.860;9.198;2022-11-20T07:03:48;6.80;99.90
8595;DHT22;4335;48.860;9.198;2022-11-20T07:06:16;6.70;99.90
8595;DHT22;4335;48.860;9.198;2022-11-20T07:08:46;6.70;99.90
8595;DHT22;4335;48.860;9.198;2022-11-20T07:11:13;6.70;99.90
8595;DHT22;4335;48.860;9.198;2022-11-20T07:13:40;6.70;99.90
8595;DHT22;4335;48.860;9.198;2022-11-20T07:16:07;6.70;99.90
8595;DHT22;4335;48.860;9.198;2022-11-20T07:18:34;6.70;99.90
8595;DHT22;4335;48.860;9.198;2022-11-20T07:21:02;6.70;99.90
8595;DHT22;4335;48.860;9.198;2022-11-20T07:23:35;6.70;99.90
8595;DHT22;4335;48.860;9.198;2022-11-20T07:26:04;6.70;99.90
8595;DHT22;4335;48.860;9.198;2022-11-20T07:28:34;6.70;99.90
8595;DHT22;4335;48.860;9.198;2022-11-20T07:31:01;6.80;99.90
8595;DHT22;4335;48.860;9.198;2022-11-20T07:33:28;6.80;99.90
8595;DHT22;4335;48.860;9.198;2022-11-20T07:35:55;6.90;99.90
8595;DHT22;4335;48.860;9.198;2022-11-20T07:38:22;6.90;99.90
8595;DHT22;4335;48.860;9.198;2022-11-20T07:40:55;7.00;99.90
8595;DHT22;4335;48.860;9.198;2022-11-20T07:43:27;7.00;99.90
8595;DHT22;4335;48.860;9.198;2022-11-20T07:45:55;7.10;99.90
8595;DHT22;4335;48.860;9.198;2022-11-20T07:48:25;7.10;99.90
8595;DHT22;4335;48.860;9.198;2022-11-20T07:50:54;7.20;99.90
8595;DHT22;4335;48.860;9.198;2022-11-20T07:53:20;7.20;99.90
8595;DHT22;4335;48.860;9.198;2022-11-20T07:55:49;7.20;99.90
8595;DHT22;4335;48.860;9.198;2022-11-20T07:58:18;7.20;99.90
8595;DHT22;4335;48.860;9.198;2022-11-20T08:00:48;7.20;99.90
8595;DHT22;4335;48.860;9.198;2022-11-20T08:03:15;7.20;99.90
8595;DHT22;4335;48.860;9.198;2022-11-20T08:05:52;7.20;99.90
8595;DHT22;4335;48.860;9.198;2022-11-20T08:08:25;7.20;99.90
8595;DHT22;4335;48.860;9.198;2022-11-20T08:10:51;7.20;99.90
8595;DHT22;4335;48.860;9.198;2022-11-20T08:13:41;7.30;99.90
8595;DHT22;4335;48.860;9.198;2022-11-20T08:16:30;7.30;99.90
8595;DHT22;4335;48.860;9.198;2022-11-20T08:18:59;7.30;99.90
8595;DHT22;4335;48.860;9.198;2022-11-20T08:21:26;7.50;99.90
8595;DHT22;4335;48.860;9.198;2022-11-20T08:23:53;7.60;99.90
8595;DHT22;4335;48.860;9.198;2022-11-20T08:26:21;7.60;99.90
8595;DHT22;4335;48.860;9.198;2022-11-20T08:28:48;7.70;99.90
8595;DHT22;4335;48.860;9.198;2022-11-20T08:31:21;7.80;99.90
8595;DHT22;4335;48.860;9.198;2022-11-20T08:33:48;7.80;99.90
8595;DHT22;4335;48.860;9.198;2022-11-20T08:36:15;7.90;99.90
8595;DHT22;4335;48.860;9.198;2022-11-20T08:38:46;7.90;99.90
8595;DHT22;4335;48.860;9.198;2022-11-20T08:41:16;8.00;99.90
8595;DHT22;4335;48.860;9.198;2022-11-20T08:43:55;8.00;99.90
8595;DHT22;4335;48.860;9.198;2022-11-20T08:46:23;8.00;99.90
8595;DHT22;4335;48.860;9.198;2022-11-20T08:49:00;8.10;99.90
8595;DHT22;4335;48.860;9.198;2022-11-20T08:51:27;8.10;99.90
8595;DHT22;4335;48.860;9.198;2022-11-20T08:53:56;8.10;99.90
8595;DHT22;4335;48.860;9.198;2022-11-20T08:56:23;8.20;99.90
8595;DHT22;4335;48.860;9.198;2022-11-20T08:58:50;8.20;99.90
8595;DHT22;4335;48.860;9.198;2022-11-20T09:01:17;8.10;99.90
8595;DHT22;4335;48.860;9.198;2022-11-20T09:03:50;8.10;99.90
8595;DHT22;4335;48.860;9.198;2022-11-20T09:06:18;8.10;99.90
8595;DHT22;4335;48.860;9.198;2022-11-20T09:08:51;8.10;99.90
8595;DHT22;4335;48.860;9.198;2022-11-20T09:11:25;8.00;99.90
8595;DHT22;4335;48.860;9.198;2022-11-20T09:13:52;7.90;99.90
8595;DHT22;4335;48.860;9.198;2022-11-20T09:16:18;8.00;99.90
8595;DHT22;4335;48.860;9.198;2022-11-20T09:18:50;8.00;99.90
8595;DHT22;4335;48.860;9.198;2022-11-20T09:21:17;8.00;99.90
8595;DHT22;4335;48.860;9.198;2022-11-20T09:23:47;8.10;99.90
8595;DHT22;4335;48.860;9.198;2022-11-20T09:26:14;8.00;99.90
8595;DHT22;4335;48.860;9.198;2022-11-20T09:28:47;8.00;99.90
8595;DHT22;4335;48.860;9.198;2022-11-20T09:31:21;8.00;99.90
8595;DHT22;4335;48.860;9.198;2022-11-20T09:33:49;7.90;99.90
8595;DHT22;4335;48.860;9.198;2022-11-20T09:36:15;7.90;99.90
8595;DHT22;4335;48.860;9.198;2022-11-20T09:38:45;8.00;99.90
8595;DHT22;4335;48.860;9.198;2022-11-20T09:41:34;7.90;99.90
8595;DHT22;4335;48.860;9.198;2022-11-20T09:44:18;7.90;99.90
8595;DHT22;4335;48.860;9.198;2022-11-20T09:46:54;7.80;99.90
8595;DHT22;4335;48.860;9.198;2022-11-20T09:49:35;7.90;99.90
8595;DHT22;4335;48.860;9.198;2022-11-20T09:52:12;7.80;99.90
8595;DHT22;4335;48.860;9.198;2022-11-20T09:54:50;7.90;99.90
8595;DHT22;4335;48.860;9.198;2022-11-20T09:57:20;7.90;99.90
8595;DHT22;4335;48.860;9.198;2022-11-20T09:59:50;7.90;99.90
8595;DHT22;4335;48.860;9.198;2022-11-20T10:02:28;7.90;99.90
8595;DHT22;4335;48.860;9.198;2022-11-20T10:05:04;7.90;99.90
8595;DHT22;4335;48.860;9.198;2022-11-20T10:07:41;7.80;99.90
8595;DHT22;4335;48.860;9.198;2022-11-20T10:10:20;7.70;99.90
8595;DHT22;4335;48.860;9.198;2022-11-20T10:13:00;7.70;99.90
8595;DHT22;4335;48.860;9.198;2022-11-20T10:15:34;7.70;99.90
8595;DHT22;4335;48.860;9.198;2022-11-20T10:18:24;7.70;99.90
8595;DHT22;4335;48.860;9.198;2022-11-20T10:21:01;7.70;99.90
8595;DHT22;4335;48.860;9.198;2022-11-20T10:23:45;7.70;99.90
8595;DHT22;4335;48.860;9.198;2022-11-20T10:26:29;7.70;99.90
8595;DHT22;4335;48.860;9.198;2022-11-20T10:29:07;7.70;99.90
8595;DHT22;4335;48.860;9.198;2022-11-20T10:31:37;7.70;99.90
8595;DHT22;4335;48.860;9.198;2022-11-20T10:34:12;7.70;99.90
8595;DHT22;4335;48.860;9.198;2022-11-20T10:36:46;7.70;99.90
8595;DHT22;4335;48.860;9.198;2022-11-20T10:39:17;7.80;99.90
8595;DHT22;4335;48.860;9.198;2022-11-20T10:41:49;7.80;99.90
8595;DHT22;4335;48.860;9.198;2022-11-20T10:44:27;7.90;99.90
8595;DHT22;4335;48.860;9.198;2022-11-20T10:47:14;7.90;99.90
8595;DHT22;4335;48.860;9.198;2022-11-20T10:49:45;7.80;99.90
8595;DHT22;4335;48.860;9.198;2022-11-20T10:52:19;7.80;99.90
8595;DHT22;4335;48.860;9.198;2022-11-20T10:54:54;7.70;99.90
8595;DHT22;4335;48.860;9.198;2022-11-20T10:57:35;7.70;99.90
8595;DHT22;4335;48.860;9.198;2022-11-20T11:00:17;7.70;99.90
8595;DHT22;4335;48.860;9.198;2022-11-20T11:02:47;7.70;99.90
8595;DHT22;4335;48.860;9.198;2022-11-20T11:05:24;7.70;99.90
8595;DHT22;4335;48.860;9.198;2022-11-20T11:07:55;7.80;99.90
8595;DHT22;4335;48.860;9.198;2022-11-20T11:10:30;7.80;99.90
8595;DHT22;4335;48.860;9.198;2022-11-20T11:12:58;7.90;99.90
8595;DHT22;4335;48.860;9.198;2022-11-20T11:15:28;8.00;99.90
8595;DHT22;4335;48.860;9.198;2022-11-20T11:17:55;8.00;99.90
8595;DHT22;4335;48.860;9.198;2022-11-20T11:20:22;8.00;99.90
8595;DHT22;4335;48.860;9.198;2022-11-20T11:22:51;8.00;99.90
8595;DHT22;4335;48.860;9.198;2022-11-20T11:25:28;8.10;99.90
8595;DHT22;4335;48.860;9.198;2022-11-20T11:27:57;8.20;99.90
8595;DHT22;4335;48.860;9.198;2022-11-20T11:30:26;8.40;99.90
8595;DHT22;4335;48.860;9.198;2022-11-20T11:33:04;8.50;99.90
8595;DHT22;4335;48.860;9.198;2022-11-20T11:35:31;8.70;99.90
8595;DHT22;4335;48.860;9.198;2022-11-20T11:38:04;8.80;99.90
8595;DHT22;4335;48.860;9.198;2022-11-20T11:40:35;8.80;99.90
8595;DHT22;4335;48.860;9.198;2022-11-20T11:43:20;8.70;99.90
8595;DHT22;4335;48.860;9.198;2022-11-20T11:46:27;8.70;99.90
8595;DHT22;4335;48.860;9.198;2022-11-20T11:48:59;8.60;99.90
8595;DHT22;4335;48.860;9.198;2022-11-20T11:51:34;8.60;99.90
8595;DHT22;4335;48.860;9.198;2022-11-20T11:54:15;8.60;99.90
8595;DHT22;4335;48.860;9.198;2022-11-20T11:56:43;8.80;99.90
8595;DHT22;4335;48.860;9.198;2022-11-20T11:59:15;8.70;99.90
8595;DHT22;4335;48.860;9.198;2022-11-20T12:01:52;8.80;99.90
8595;DHT22;4335;48.860;9.198;2022-11-20T12:04:26;8.80;99.90
8595;DHT22;4335;48.860;9.198;2022-11-20T12:07:03;8.90;99.90
8595;DHT22;4335;48.860;9.198;2022-11-20T12:09:37;9.00;99.90
8595;DHT22;4335;48.860;9.198;2022-11-20T12:12:10;9.20;99.90
8595;DHT22;4335;48.860;9.198;2022-11-20T12:14:39;9.20;99.90
8595;DHT22;4335;48.860;9.198;2022-11-20T12:17:09;9.20;99.90
8595;DHT22;4335;48.860;9.198;2022-11-20T12:19:36;9.20;99.90
8595;DHT22;4335;48.860;9.198;2022-11-20T12:22:10;9.20;99.90
8595;DHT22;4335;48.860;9.198;2022-11-20T12:24:52;9.10;99.90
8595;DHT22;4335;48.860;9.198;2022-11-20T12:27:49;9.10;99.90
8595;DHT22;4335;48.860;9.198;2022-11-20T12:30:23;9.00;99.90
8595;DHT22;4335;48.860;9.198;2022-11-20T12:33:27;9.10;99.90
8595;DHT22;4335;48.860;9.198;2022-11-20T12:36:07;9.00;99.90
8595;DHT22;4335;48.860;9.198;2022-11-20T12:39:22;9.00;99.90
8595;DHT22;4335;48.860;9.198;2022-11-20T12:42:08;9.10;99.90
8595;DHT22;4335;48.860;9.198;2022-11-20T12:45:22;8.90;99.90
8595;DHT22;4335;48.860;9.198;2022-11-20T12:48:19;9.10;99.90
8595;DHT22;4335;48.860;9.198;2022-11-20T12:51:03;9.10;99.90
8595;DHT22;4335;48.860;9.198;2022-11-20T12:53:37;9.10;99.90
8595;DHT22;4335;48.860;9.198;2022-11-20T12:56:15;9.10;99.90
8595;DHT22;4335;48.860;9.198;2022-11-20T12:58:50;9.20;99.90
8595;DHT22;4335;48.860;9.198;2022-11-20T13:01:25;9.20;99.90
8595;DHT22;4335;48.860;9.198;2022-11-20T13:04:31;9.20;99.90
8595;DHT22;4335;48.860;9.198;2022-11-20T13:07:02;9.20;99.90
8595;DHT22;4335;48.860;9.198;2022-11-20T13:09:30;9.10;99.90
8595;DHT22;4335;48.860;9.198;2022-11-20T13:12:03;9.10;99.90
8595;DHT22;4335;48.860;9.198;2022-11-20T13:14:36;9.20;99.90
8595;DHT22;4335;48.860;9.198;2022-11-20T13:17:08;9.20;99.90
8595;DHT22;4335;48.860;9.198;2022-11-20T13:19:41;9.20;99.90
8595;DHT22;4335;48.860;9.198;2022-11-20T13:22:08;9.20;99.90
8595;DHT22;4335;48.860;9.198;2022-11-20T13:24:35;9.30;99.90
8595;DHT22;4335;48.860;9.198;2022-11-20T13:27:17;9.20;99.90
8595;DHT22;4335;48.860;9.198;2022-11-20T13:30:10;9.20;99.90
8595;DHT22;4335;48.860;9.198;2022-11-20T13:32:49;9.30;99.90
8595;DHT22;4335;48.860;9.198;2022-11-20T13:35:26;9.20;99.90
8595;DHT22;4335;48.860;9.198;2022-11-20T13:38:05;9.10;99.90
8595;DHT22;4335;48.860;9.198;2022-11-20T13:40:32;9.10;99.90
8595;DHT22;4335;48.860;9.198;2022-11-20T13:43:20;9.00;99.90
8595;DHT22;4335;48.860;9.198;2022-11-20T13:45:58;9.10;99.90
8595;DHT22;4335;48.860;9.198;2022-11-20T13:48:31;9.10;99.90
8595;DHT22;4335;48.860;9.198;2022-11-20T13:51:26;9.20;99.90
8595;DHT22;4335;48.860;9.198;2022-11-20T13:54:03;9.10;99.90
8595;DHT22;4335;48.860;9.198;2022-11-20T13:56:44;9.10;99.90
8595;DHT22;4335;48.860;9.198;2022-11-20T13:59:29;9.10;99.90
8595;DHT22;4335;48.860;9.198;2022-11-20T14:02:00;9.00;99.90
8595;DHT22;4335;48.860;9.198;2022-11-20T14:04:31;9.00;99.90
8595;DHT22;4335;48.860;9.198;2022-11-20T14:07:00;9.10;99.90
8595;DHT22;4335;48.860;9.198;2022-11-20T14:09:34;9.00;99.90
8595;DHT22;4335;48.860;9.198;2022-11-20T14:12:02;9.00;99.90
8595;DHT22;4335;48.860;9.198;2022-11-20T14:14:30;9.00;99.90
8595;DHT22;4335;48.860;9.198;2022-11-20T14:17:06;9.10;99.90
8595;DHT22;4335;48.860;9.198;2022-11-20T14:19:33;9.00;99.90
8595;DHT22;4335;48.860;9.198;2022-11-20T14:22:18;8.90;99.90
8595;DHT22;4335;48.860;9.198;2022-11-20T14:24:45;8.90;99.90
8595;DHT22;4335;48.860;9.198;2022-11-20T14:27:14;8.80;99.90
8595;DHT22;4335;48.860;9.198;2022-11-20T14:29:46;8.90;99.90
8595;DHT22;4335;48.860;9.198;2022-11-20T14:32:17;8.80;99.90
8595;DHT22;4335;48.860;9.198;2022-11-20T14:34:47;8.70;99.90
8595;DHT22;4335;48.860;9.198;2022-11-20T14:37:20;8.70;99.90
8595;DHT22;4335;48.860;9.198;2022-11-20T14:39:51;8.60;99.90
8595;DHT22;4335;48.860;9.198;2022-11-20T14:42:20;8.60;99.90
8595;DHT22;4335;48.860;9.198;2022-11-20T14:44:48;8.60;99.90
8595;DHT22;4335;48.860;9.198;2022-11-20T14:47:18;8.60;99.90
8595;DHT22;4335;48.860;9.198;2022-11-20T14:49:46;8.50;99.90
8595;DHT22;4335;48.860;9.198;2022-11-20T14:52:17;8.60;99.90
8595;DHT22;4335;48.860;9.198;2022-11-20T14:54:45;8.60;99.90
8595;DHT22;4335;48.860;9.198;2022-11-20T14:57:24;8.50;99.90
8595;DHT22;4335;48.860;9.198;2022-11-20T15:00:03;8.40;99.90
8595;DHT22;4335;48.860;9.198;2022-11-20T15:02:30;8.40;99.90
8595;DHT22;4335;48.860;9.198;2022-11-20T15:04:58;8.40;99.90
8595;DHT22;4335;48.860;9.198;2022-11-20T15:07:27;8.30;99.90
8595;DHT22;4335;48.860;9.198;2022-11-20T15:10:02;8.30;99.90
8595;DHT22;4335;48.860;9.198;2022-11-20T15:12:30;8.20;99.90
8595;DHT22;4335;48.860;9.198;2022-11-20T15:14:57;8.20;99.90
8595;DHT22;4335;48.860;9.198;2022-11-20T15:17:26;8.10;99.90
8595;DHT22;4335;48.860;9.198;2022-11-20T15:19:53;8.10;99.90
8595;DHT22;4335;48.860;9.198;2022-11-20T15:22:20;8.00;99.90
8595;DHT22;4335;48.860;9.198;2022-11-20T15:24:48;8.00;99.90
8595;DHT22;4335;48.860;9.198;2022-11-20T15:27:14;8.00;99.90
8595;DHT22;4335;48.860;9.198;2022-11-20T15:29:42;7.90;99.90
8595;DHT22;4335;48.860;9.198;2022-11-20T15:32:12;7.90;99.90
8595;DHT22;4335;48.860;9.198;2022-11-20T15:34:39;7.80;99.90
8595;DHT22;4335;48.860;9.198;2022-11-20T15:37:05;7.80;99.90
8595;DHT22;4335;48.860;9.198;2022-11-20T15:39:32;7.80;99.90
8595;DHT22;4335;48.860;9.198;2022-11-20T15:42:00;7.70;99.90
8595;DHT22;4335;48.860;9.198;2022-11-20T15:44:29;7.70;99.90
8595;DHT22;4335;48.860;9.198;2022-11-20T15:46:56;7.60;99.90
8595;DHT22;4335;48.860;9.198;2022-11-20T15:49:23;7.60;99.90
8595;DHT22;4335;48.860;9.198;2022-11-20T15:51:57;7.50;99.90
8595;DHT22;4335;48.860;9.198;2022-11-20T15:54:23;7.40;99.90
8595;DHT22;4335;48.860;9.198;2022-11-20T15:56:50;7.40;99.90
8595;DHT22;4335;48.860;9.198;2022-11-20T15:59:19;7.40;99.90
8595;DHT22;4335;48.860;9.198;2022-11-20T16:01:49;7.30;99.90
8595;DHT22;4335;48.860;9.198;2022-11-20T16:04:16;7.30;99.90
8595;DHT22;4335;48.860;9.198;2022-11-20T16:06:43;7.30;99.90
8595;DHT22;4335;48.860;9.198;2022-11-20T16:09:12;7.30;99.90
8595;DHT22;4335;48.860;9.198;2022-11-20T16:11:45;7.30;99.90
8595;DHT22;4335;48.860;9.198;2022-11-20T16:14:12;7.20;99.90
8595;DHT22;4335;48.860;9.198;2022-11-20T16:16:57;7.20;99.90
8595;DHT22;4335;48.860;9.198;2022-11-20T16:19:27;7.20;99.90
8595;DHT22;4335;48.860;9.198;2022-11-20T16:21:54;7.20;99.90
8595;DHT22;4335;48.860;9.198;2022-11-20T16:24:20;7.20;99.90
8595;DHT22;4335;48.860;9.198;2022-11-20T16:26:47;7.10;99.90
8595;DHT22;4335;48.860;9.198;2022-11-20T16:29:17;7.10;99.90
8595;DHT22;4335;48.860;9.198;2022-11-20T16:31:43;7.20;99.90
8595;DHT22;4335;48.860;9.198;2022-11-20T16:34:16;7.10;99.90
8595;DHT22;4335;48.860;9.198;2022-11-20T16:36:43;7.10;99.90
8595;DHT22;4335;48.860;9.198;2022-11-20T16:39:11;7.10;99.90
8595;DHT22;4335;48.860;9.198;2022-11-20T16:41:38;7.10;99.90
8595;DHT22;4335;48.860;9.198;2022-11-20T16:44:07;7.20;99.90